Weather at Lake Tahoe Airport

Public forecast

Using degrees Fahrenheit for public forecast. Weather courtesy of forecast.io.

Current aviation weather report (METAR) for Lake Tahoe Airport

2023/03/29 12:02 (retrieved 27 minutes ago)

KTVL 291202Z AUTO 15006KT 5SM -SN BR BKN026 BKN041 OVC050 M07/M09 A2969 RMK AO2 P0000 T10671089

Aviation forecast (TAF) for Lake Tahoe Airport

2023/03/29 12:33 (retrieved 0 seconds ago)

TAF KTVL 291129Z 2912/3012 19007KT P6SM VCSH SCT025 BKN035 TEMPO 2912/2914 5SM -SHSN BKN025 FM292100 19007KT 3SM -SHSN BKN020 OVC030 FM300800 VRB03KT P6SM SCT025 BKN035